createdAt,value
2023-05-11T00:02:19.969Z,19.60
2023-05-11T00:04:50.973Z,19.60
2023-05-11T00:07:21.823Z,19.70
2023-05-11T00:09:51.066Z,19.70
2023-05-11T00:12:18.956Z,19.60
2023-05-11T00:14:46.889Z,19.60
2023-05-11T00:17:18.840Z,19.50
2023-05-11T00:19:49.930Z,19.50
2023-05-11T00:22:24.018Z,19.40
2023-05-11T00:24:53.253Z,19.30
2023-05-11T00:27:21.116Z,19.40
2023-05-11T00:29:52.015Z,19.50
2023-05-11T00:32:19.929Z,19.50
2023-05-11T00:34:56.726Z,19.60
2023-05-11T00:37:27.686Z,19.60
2023-05-11T00:39:59.982Z,19.60
2023-05-11T00:42:35.335Z,19.50
2023-05-11T00:45:08.278Z,19.40
2023-05-11T00:47:39.275Z,19.30
2023-05-11T00:50:10.234Z,19.30
2023-05-11T00:52:53.635Z,19.10
2023-05-11T00:55:25.802Z,19.00
2023-05-11T00:57:53.968Z,19.00
2023-05-11T01:00:27.249Z,19.10
2023-05-11T01:02:58.409Z,19.20
2023-05-11T01:05:36.873Z,19.20
2023-05-11T01:08:13.012Z,19.30
2023-05-11T01:10:47.691Z,19.50
2023-05-11T01:13:21.061Z,19.60
2023-05-11T01:15:52.748Z,19.70
2023-05-11T01:18:31.978Z,19.80
2023-05-11T01:21:03.721Z,19.80
2023-05-11T01:24:10.223Z,19.80
2023-05-11T01:27:18.277Z,19.70
2023-05-11T01:30:09.241Z,19.60
2023-05-11T01:32:42.052Z,19.60
2023-05-11T01:35:15.528Z,19.50
2023-05-11T01:37:51.486Z,19.40
2023-05-11T01:40:29.122Z,19.20
2023-05-11T01:43:08.304Z,19.00
2023-05-11T01:45:42.590Z,18.80
2023-05-11T01:48:29.639Z,18.80
2023-05-11T01:51:04.761Z,18.70
2023-05-11T01:53:38.702Z,18.70
2023-05-11T01:56:13.570Z,18.60
2023-05-11T01:58:43.229Z,18.40
2023-05-11T02:01:12.997Z,18.10
2023-05-11T02:03:49.683Z,17.90
2023-05-11T02:06:25.733Z,17.90
2023-05-11T02:08:57.401Z,17.90
2023-05-11T02:11:27.669Z,18.10
2023-05-11T02:13:57.558Z,18.10
2023-05-11T02:16:30.062Z,18.20
2023-05-11T02:19:00.678Z,18.20
2023-05-11T02:21:39.006Z,18.00
2023-05-11T02:24:08.760Z,17.80
2023-05-11T02:26:42.215Z,17.50
2023-05-11T02:29:10.214Z,17.30
2023-05-11T02:31:44.553Z,17.20
2023-05-11T02:34:31.366Z,17.40
2023-05-11T02:37:07.400Z,17.60
2023-05-11T02:39:37.488Z,17.70
2023-05-11T02:42:20.832Z,17.90
2023-05-11T02:44:57.359Z,18.00
2023-05-11T02:47:36.574Z,18.00
2023-05-11T02:50:22.348Z,18.10
2023-05-11T02:52:58.842Z,18.10
2023-05-11T02:55:34.502Z,18.10
2023-05-11T02:58:05.549Z,18.10
2023-05-11T03:00:36.756Z,17.90
2023-05-11T03:03:05.338Z,17.80
2023-05-11T03:05:40.750Z,17.50
2023-05-11T03:08:11.974Z,17.20
2023-05-11T03:10:43.473Z,17.10
2023-05-11T03:13:11.808Z,17.30
2023-05-11T03:15:40.302Z,17.30
2023-05-11T03:18:12.502Z,17.20
2023-05-11T03:20:44.140Z,17.40
2023-05-11T03:23:13.332Z,17.40
2023-05-11T03:25:43.012Z,17.40
2023-05-11T03:28:18.458Z,17.50
2023-05-11T03:30:47.574Z,17.60
2023-05-11T03:33:17.693Z,17.50
2023-05-11T03:36:13.497Z,17.40
2023-05-11T03:38:45.968Z,17.30
2023-05-11T03:41:23.583Z,17.30
2023-05-11T03:43:57.081Z,17.40
2023-05-11T03:46:28.859Z,17.40
2023-05-11T03:48:59.563Z,17.50
2023-05-11T03:51:36.115Z,17.50
2023-05-11T03:54:04.216Z,17.70
2023-05-11T03:56:38.694Z,17.80
2023-05-11T03:59:06.843Z,17.90
2023-05-11T04:01:35.087Z,18.00
2023-05-11T04:04:08.908Z,17.90
2023-05-11T04:06:50.129Z,17.70
2023-05-11T04:09:24.333Z,17.70
2023-05-11T04:11:55.071Z,17.50
2023-05-11T04:14:22.953Z,17.50
2023-05-11T04:16:53.703Z,17.40
2023-05-11T04:19:24.599Z,17.30
2023-05-11T04:22:01.129Z,17.40
2023-05-11T04:24:37.649Z,17.50
2023-05-11T04:27:08.708Z,17.30
2023-05-11T04:29:45.839Z,17.20
2023-05-11T04:32:13.715Z,17.40
2023-05-11T04:34:41.676Z,17.60
2023-05-11T04:37:13.797Z,17.80
2023-05-11T04:39:44.757Z,18.00
2023-05-11T04:42:12.735Z,18.20
2023-05-11T04:44:46.498Z,18.30
2023-05-11T04:47:15.377Z,18.50
2023-05-11T04:49:44.165Z,18.60
2023-05-11T04:52:13.465Z,18.60
2023-05-11T04:54:44.588Z,18.50
2023-05-11T04:57:12.470Z,18.20
2023-05-11T04:59:40.474Z,18.20
2023-05-11T05:02:11.252Z,18.10
2023-05-11T05:04:39.135Z,18.00
2023-05-11T05:07:14.330Z,17.90
2023-05-11T05:09:45.122Z,17.80
2023-05-11T05:12:13.256Z,17.80
2023-05-11T05:14:41.125Z,17.70
2023-05-11T05:17:25.794Z,17.60
2023-05-11T05:19:53.681Z,17.50
2023-05-11T05:22:28.812Z,17.50
2023-05-11T05:25:02.755Z,17.60
2023-05-11T05:27:33.429Z,17.60
2023-05-11T05:30:02.532Z,17.50
2023-05-11T05:32:30.541Z,17.40
2023-05-11T05:35:01.297Z,17.30
2023-05-11T05:37:30.589Z,16.90
2023-05-11T05:39:58.462Z,16.70
2023-05-11T05:42:26.384Z,16.70
2023-05-11T05:44:54.239Z,16.80
2023-05-11T05:47:22.290Z,16.90
2023-05-11T05:49:53.121Z,17.10
2023-05-11T05:52:21.031Z,17.20
2023-05-11T05:54:50.315Z,17.40
2023-05-11T05:57:21.004Z,17.60
2023-05-11T05:59:48.887Z,17.60
2023-05-11T06:02:16.790Z,18.00
2023-05-11T06:04:44.728Z,18.20
2023-05-11T06:07:32.690Z,18.10
2023-05-11T06:10:04.605Z,18.00
2023-05-11T06:12:32.465Z,18.00
2023-05-11T06:15:03.585Z,18.10
2023-05-11T06:17:34.477Z,18.00
2023-05-11T06:20:02.479Z,17.90
2023-05-11T06:22:36.541Z,17.80
2023-05-11T06:25:11.542Z,17.70
2023-05-11T06:27:39.409Z,17.60
2023-05-11T06:30:08.683Z,17.60
2023-05-11T06:32:40.720Z,17.60
2023-05-11T06:35:11.930Z,17.70
2023-05-11T06:37:45.874Z,17.70
2023-05-11T06:40:20.986Z,17.80
2023-05-11T06:42:54.145Z,17.80
2023-05-11T06:45:24.310Z,17.90
2023-05-11T06:47:55.256Z,18.20
2023-05-11T06:50:32.064Z,18.50
2023-05-11T06:52:59.944Z,18.50
2023-05-11T06:55:32.071Z,18.40
2023-05-11T06:58:05.267Z,18.50
2023-05-11T07:00:33.137Z,18.60
2023-05-11T07:03:01.056Z,18.50
2023-05-11T07:05:29.455Z,18.60
2023-05-11T07:07:57.396Z,18.70
2023-05-11T07:10:28.057Z,18.70
2023-05-11T07:12:57.264Z,18.80
2023-05-11T07:15:31.290Z,18.90
2023-05-11T07:18:01.108Z,19.00
2023-05-11T07:20:29.349Z,19.00
2023-05-11T07:23:00.418Z,19.00
2023-05-11T07:25:28.472Z,19.00
2023-05-11T07:27:58.617Z,18.90
2023-05-11T07:30:26.572Z,18.90
2023-05-11T07:33:00.490Z,18.80
2023-05-11T07:35:28.396Z,18.70
2023-05-11T07:37:59.355Z,18.70
2023-05-11T07:40:30.975Z,18.60
2023-05-11T07:43:00.240Z,18.60
2023-05-11T07:45:31.409Z,18.60
2023-05-11T07:47:59.398Z,18.70
2023-05-11T07:50:30.150Z,18.70
2023-05-11T07:53:01.097Z,18.60
2023-05-11T07:55:30.531Z,18.60
2023-05-11T07:57:59.880Z,18.80
2023-05-11T08:00:27.820Z,18.70
2023-05-11T08:02:55.839Z,18.70
2023-05-11T08:05:23.853Z,18.60
2023-05-11T08:07:51.800Z,18.50
2023-05-11T08:10:19.869Z,18.50
2023-05-11T08:12:56.069Z,18.50
2023-05-11T08:15:25.387Z,18.60
2023-05-11T08:17:53.342Z,18.90
2023-05-11T08:20:21.263Z,18.80
2023-05-11T08:22:49.126Z,18.60
2023-05-11T08:25:17.425Z,18.60
2023-05-11T08:27:47.609Z,18.60
2023-05-11T08:30:16.248Z,18.60
2023-05-11T08:32:58.031Z,18.70
2023-05-11T08:35:27.243Z,18.60
2023-05-11T08:37:55.255Z,18.80
2023-05-11T08:40:25.428Z,18.80
2023-05-11T08:42:56.723Z,18.80
2023-05-11T08:45:26.129Z,18.90
2023-05-11T08:47:55.628Z,19.10
2023-05-11T08:50:23.697Z,19.30
2023-05-11T08:52:51.610Z,19.30
2023-05-11T08:55:23.312Z,19.30
2023-05-11T08:57:54.300Z,19.40
2023-05-11T09:00:23.435Z,19.30
2023-05-11T09:02:52.649Z,19.10
2023-05-11T09:05:22.474Z,19.00
2023-05-11T09:07:57.152Z,19.00
2023-05-11T09:10:25.638Z,18.90
2023-05-11T09:12:53.521Z,18.80
2023-05-11T09:15:24.519Z,18.80
2023-05-11T09:17:58.736Z,18.70
2023-05-11T09:20:34.924Z,18.50
2023-05-11T09:23:05.704Z,18.40
2023-05-11T09:25:47.219Z,18.30
2023-05-11T09:28:24.837Z,18.40
2023-05-11T09:30:59.302Z,18.30
2023-05-11T09:33:30.298Z,18.40
2023-05-11T09:36:02.897Z,18.50
2023-05-11T09:38:36.274Z,18.50
2023-05-11T09:41:09.490Z,18.70
2023-05-11T09:43:37.510Z,18.60
2023-05-11T09:46:07.730Z,18.50
2023-05-11T09:48:35.910Z,18.50
2023-05-11T09:51:07.483Z,18.50
2023-05-11T09:53:40.945Z,18.30
2023-05-11T09:56:12.403Z,18.00
2023-05-11T09:59:01.881Z,17.90
2023-05-11T10:01:32.328Z,17.70
2023-05-11T10:04:18.046Z,17.70
2023-05-11T10:06:54.558Z,17.70
2023-05-11T10:09:25.475Z,17.60
2023-05-11T10:11:54.543Z,17.70
2023-05-11T10:14:26.124Z,17.90
2023-05-11T10:16:54.933Z,18.00
2023-05-11T10:19:23.377Z,18.10
2023-05-11T10:21:56.524Z,18.20
2023-05-11T10:24:28.168Z,18.30
2023-05-11T10:27:02.733Z,18.40
2023-05-11T10:29:33.896Z,18.50
2023-05-11T10:32:07.319Z,18.50
2023-05-11T10:34:35.627Z,18.60
2023-05-11T10:37:05.729Z,18.60
2023-05-11T10:39:40.510Z,18.70
2023-05-11T10:42:30.088Z,18.60
2023-05-11T10:45:17.419Z,18.60
2023-05-11T10:48:18.053Z,18.60
2023-05-11T10:51:27.614Z,18.70
2023-05-11T10:54:28.790Z,18.70
2023-05-11T10:57:14.335Z,18.70
2023-05-11T11:00:35.450Z,18.80
2023-05-11T11:03:11.364Z,19.20
2023-05-11T11:05:39.442Z,19.30
2023-05-11T11:08:09.277Z,19.50
2023-05-11T11:10:43.879Z,19.60
2023-05-11T11:13:14.944Z,19.60
2023-05-11T11:16:22.037Z,20.00
2023-05-11T11:18:53.092Z,20.00
2023-05-11T11:21:43.258Z,19.90
2023-05-11T11:24:49.589Z,20.10
2023-05-11T11:27:18.801Z,20.00
2023-05-11T11:30:21.541Z,19.90
2023-05-11T11:32:51.929Z,19.70
2023-05-11T11:35:50.761Z,19.70
2023-05-11T11:38:24.459Z,19.70
2023-05-11T11:40:58.452Z,19.80
2023-05-11T11:43:30.058Z,19.90
2023-05-11T11:46:01.066Z,19.90
2023-05-11T11:48:42.549Z,20.00
2023-05-11T11:51:19.982Z,20.00
2023-05-11T11:54:00.878Z,19.90
2023-05-11T11:56:40.150Z,19.90
2023-05-11T11:59:16.408Z,19.90
2023-05-11T12:01:46.415Z,19.90
2023-05-11T12:04:41.899Z,20.00
2023-05-11T12:07:13.692Z,20.00
2023-05-11T12:09:44.730Z,19.70
2023-05-11T12:12:12.984Z,19.70
2023-05-11T12:14:48.709Z,19.80
2023-05-11T12:17:24.049Z,20.00
2023-05-11T12:19:52.012Z,20.00
2023-05-11T12:22:23.829Z,20.20
2023-05-11T12:24:52.046Z,20.20
2023-05-11T12:27:28.666Z,20.20
2023-05-11T12:30:01.113Z,20.20
2023-05-11T12:32:35.501Z,20.20
2023-05-11T12:35:07.863Z,20.20
2023-05-11T12:37:42.548Z,20.40
2023-05-11T12:40:23.571Z,20.40
2023-05-11T12:42:52.357Z,20.40
2023-05-11T12:45:29.126Z,20.20
2023-05-11T12:48:00.552Z,20.00
2023-05-11T12:50:47.771Z,19.90
2023-05-11T12:53:16.934Z,20.00
2023-05-11T12:55:45.411Z,19.60
2023-05-11T12:58:18.715Z,19.40
2023-05-11T13:00:56.018Z,19.10
2023-05-11T13:03:24.562Z,19.20
2023-05-11T13:05:54.206Z,19.30
2023-05-11T13:08:22.079Z,19.50
2023-05-11T13:10:51.843Z,19.70
2023-05-11T13:13:35.286Z,20.00
2023-05-11T13:16:07.512Z,20.20
2023-05-11T13:19:00.174Z,20.40
2023-05-11T13:21:33.004Z,20.50
2023-05-11T13:24:02.089Z,20.50
2023-05-11T13:26:37.729Z,20.60
2023-05-11T13:29:11.141Z,20.60
2023-05-11T13:31:53.373Z,20.60
2023-05-11T13:34:21.734Z,20.60
2023-05-11T13:36:55.399Z,20.70
2023-05-11T13:39:27.582Z,20.70
2023-05-11T13:41:56.222Z,20.70
2023-05-11T13:44:24.250Z,20.60
2023-05-11T13:46:56.778Z,20.60
2023-05-11T13:49:27.860Z,20.60
2023-05-11T13:51:56.116Z,20.50
2023-05-11T13:54:23.992Z,20.50
2023-05-11T13:57:10.734Z,20.50
2023-05-11T13:59:38.649Z,20.50
2023-05-11T14:02:11.602Z,20.50
2023-05-11T14:04:45.132Z,20.20
2023-05-11T14:07:19.253Z,20.10
2023-05-11T14:09:53.244Z,20.10
2023-05-11T14:12:30.269Z,20.10
2023-05-11T14:15:04.160Z,20.30
2023-05-11T14:17:42.645Z,20.50
2023-05-11T14:20:14.555Z,20.60
2023-05-11T14:22:42.575Z,20.60
2023-05-11T14:25:10.827Z,20.70
2023-05-11T14:27:38.722Z,20.60
2023-05-11T14:30:13.278Z,20.50
2023-05-11T14:32:42.698Z,20.20
2023-05-11T14:35:15.874Z,20.10
2023-05-11T14:37:43.762Z,20.20
2023-05-11T14:40:16.934Z,19.80
2023-05-11T14:42:56.475Z,19.30
2023-05-11T14:45:26.745Z,19.00
2023-05-11T14:47:56.402Z,18.60
2023-05-11T14:50:24.407Z,18.80
2023-05-11T14:53:01.216Z,18.90
2023-05-11T14:55:31.405Z,19.20
2023-05-11T14:58:04.018Z,19.50
2023-05-11T15:00:34.763Z,19.80
2023-05-11T15:03:13.662Z,20.00
2023-05-11T15:05:41.802Z,20.20
2023-05-11T15:08:21.745Z,20.30
2023-05-11T15:10:58.898Z,20.40
2023-05-11T15:13:26.816Z,20.60
2023-05-11T15:16:08.683Z,20.60
2023-05-11T15:18:38.056Z,20.50
2023-05-11T15:21:06.060Z,20.50
2023-05-11T15:23:37.084Z,20.50
2023-05-11T15:26:10.844Z,20.50
2023-05-11T15:28:41.814Z,20.50
2023-05-11T15:31:15.495Z,20.50
2023-05-11T15:33:45.332Z,20.40
2023-05-11T15:36:16.840Z,20.40
2023-05-11T15:38:45.235Z,20.30
2023-05-11T15:41:13.256Z,20.30
2023-05-11T15:43:46.871Z,20.30
2023-05-11T15:46:19.749Z,20.20
2023-05-11T15:48:51.907Z,19.90
2023-05-11T15:51:19.837Z,19.90
2023-05-11T15:53:53.822Z,19.80
2023-05-11T15:56:22.609Z,19.70
2023-05-11T15:58:50.493Z,19.80
2023-05-11T16:01:21.238Z,19.70
2023-05-11T16:03:49.256Z,19.60
2023-05-11T16:06:21.299Z,19.50
2023-05-11T16:08:49.226Z,19.40
2023-05-11T16:11:18.732Z,19.30
2023-05-11T16:13:46.975Z,19.10
2023-05-11T16:16:17.940Z,19.00
2023-05-11T16:18:46.446Z,19.10
2023-05-11T16:21:14.885Z,19.00
2023-05-11T16:23:46.741Z,19.10
2023-05-11T16:26:14.655Z,19.20
2023-05-11T16:28:45.058Z,19.30
2023-05-11T16:31:13.076Z,19.40
2023-05-11T16:33:40.935Z,19.60
2023-05-11T16:36:09.843Z,19.70
2023-05-11T16:38:41.182Z,19.40
2023-05-11T16:41:13.327Z,18.90
2023-05-11T16:43:42.754Z,18.50
2023-05-11T16:46:10.808Z,18.40
2023-05-11T16:48:44.636Z,18.20
2023-05-11T16:51:12.802Z,18.20
2023-05-11T16:53:41.751Z,18.40
2023-05-11T16:56:09.631Z,18.60
2023-05-11T16:58:39.257Z,18.70
2023-05-11T17:01:08.124Z,18.80
2023-05-11T17:03:36.109Z,18.70
2023-05-11T17:06:14.635Z,18.70
2023-05-11T17:08:42.789Z,18.80
2023-05-11T17:11:10.661Z,18.80
2023-05-11T17:13:39.947Z,18.80
2023-05-11T17:16:08.021Z,18.80
2023-05-11T17:18:35.990Z,18.90
2023-05-11T17:21:17.806Z,18.90
2023-05-11T17:23:46.078Z,19.00
2023-05-11T17:26:19.177Z,19.10
2023-05-11T17:28:53.936Z,19.30
2023-05-11T17:31:21.903Z,19.50
2023-05-11T17:33:56.004Z,19.70
2023-05-11T17:36:24.215Z,19.70
2023-05-11T17:38:53.541Z,19.80
2023-05-11T17:41:21.406Z,19.80
2023-05-11T17:43:49.265Z,19.80
2023-05-11T17:46:18.924Z,19.80
2023-05-11T17:48:46.822Z,19.80
2023-05-11T17:51:20.547Z,19.80
2023-05-11T17:53:49.705Z,19.80
2023-05-11T17:56:27.971Z,19.60
2023-05-11T17:58:58.927Z,19.50
2023-05-11T18:01:28.352Z,19.40
2023-05-11T18:04:08.829Z,19.30
2023-05-11T18:06:40.061Z,19.30
2023-05-11T18:09:12.453Z,19.20
2023-05-11T18:11:40.802Z,19.20
2023-05-11T18:14:10.643Z,19.10
2023-05-11T18:16:42.532Z,19.10
2023-05-11T18:19:10.608Z,18.90
2023-05-11T18:21:38.785Z,18.80
2023-05-11T18:24:09.669Z,18.80
2023-05-11T18:26:37.938Z,18.70
2023-05-11T18:29:05.789Z,18.70
2023-05-11T18:31:40.873Z,18.70
2023-05-11T18:34:08.755Z,18.80
2023-05-11T18:36:39.053Z,18.50
2023-05-11T18:39:06.919Z,18.40
2023-05-11T18:41:34.896Z,18.30
2023-05-11T18:44:08.212Z,18.20
2023-05-11T18:46:36.087Z,18.30
2023-05-11T18:49:08.146Z,18.40
2023-05-11T18:51:39.199Z,18.50
2023-05-11T18:54:07.287Z,18.70
2023-05-11T18:56:41.072Z,18.80
2023-05-11T18:59:10.876Z,18.90
2023-05-11T19:04:19.451Z,19.00
2023-05-11T19:06:50.446Z,19.10
2023-05-11T19:09:22.228Z,19.10
2023-05-11T19:11:50.128Z,19.10
2023-05-11T19:14:26.974Z,19.00
2023-05-11T19:16:57.990Z,19.10
2023-05-11T19:19:29.413Z,19.10
2023-05-11T19:22:02.633Z,19.10
2023-05-11T19:24:30.590Z,19.20
2023-05-11T19:27:06.803Z,19.20
2023-05-11T19:29:35.945Z,19.10
2023-05-11T19:32:04.032Z,19.00
2023-05-11T19:34:33.952Z,18.90
2023-05-11T19:37:04.897Z,18.90
2023-05-11T19:39:39.946Z,18.90
2023-05-11T19:42:10.893Z,18.90
2023-05-11T19:44:43.521Z,19.00
2023-05-11T19:47:14.202Z,19.00
2023-05-11T19:49:43.693Z,19.00
2023-05-11T19:52:13.893Z,19.00
2023-05-11T19:54:41.728Z,19.00
2023-05-11T19:57:09.865Z,19.20
2023-05-11T19:59:37.660Z,19.30
2023-05-11T20:02:06.233Z,19.20
2023-05-11T20:04:34.431Z,19.10
2023-05-11T20:07:20.054Z,19.00
2023-05-11T20:09:50.276Z,19.00
2023-05-11T20:12:18.136Z,19.10
2023-05-11T20:14:45.938Z,19.00
2023-05-11T20:17:16.732Z,18.90
2023-05-11T20:19:57.233Z,18.70
2023-05-11T20:22:29.505Z,18.50
2023-05-11T20:25:00.210Z,18.50
2023-05-11T20:27:28.045Z,18.30
2023-05-11T20:29:59.107Z,18.30
2023-05-11T20:32:29.462Z,18.20
2023-05-11T20:35:00.437Z,18.20
2023-05-11T20:37:33.159Z,18.30
2023-05-11T20:40:10.653Z,18.20
2023-05-11T20:42:38.954Z,18.20
2023-05-11T20:45:12.556Z,18.10
2023-05-11T20:47:40.416Z,18.10
2023-05-11T20:50:12.123Z,17.90
2023-05-11T20:52:41.522Z,17.90
2023-05-11T20:55:16.075Z,17.70
2023-05-11T20:57:43.984Z,17.80
2023-05-11T21:00:18.096Z,17.90
2023-05-11T21:02:55.395Z,17.90
2023-05-11T21:05:29.735Z,17.90
2023-05-11T21:08:08.226Z,17.70
2023-05-11T21:10:42.554Z,17.70
2023-05-11T21:13:13.163Z,17.80
2023-05-11T21:15:53.130Z,17.90
2023-05-11T21:18:25.844Z,18.00
2023-05-11T21:20:54.578Z,17.90
2023-05-11T21:23:26.154Z,17.90
2023-05-11T21:25:57.090Z,17.80
2023-05-11T21:28:25.694Z,17.80
2023-05-11T21:30:53.772Z,17.70
2023-05-11T21:33:25.105Z,17.80
2023-05-11T21:35:59.300Z,17.90
2023-05-11T21:38:34.576Z,17.90
2023-05-11T21:41:02.600Z,17.90
2023-05-11T21:43:37.722Z,18.10
2023-05-11T21:46:06.084Z,18.20
2023-05-11T21:48:40.013Z,18.30
2023-05-11T21:51:15.613Z,18.30
2023-05-11T21:53:50.157Z,18.20
2023-05-11T21:56:18.019Z,18.20
2023-05-11T21:58:45.892Z,18.20
2023-05-11T22:01:16.914Z,18.10
2023-05-11T22:03:50.332Z,18.20
2023-05-11T22:06:21.109Z,18.20
2023-05-11T22:08:55.619Z,18.20
2023-05-11T22:11:24.217Z,18.30
2023-05-11T22:14:01.401Z,18.30
2023-05-11T22:16:29.347Z,18.50
2023-05-11T22:18:57.230Z,18.30
2023-05-11T22:21:26.680Z,18.10
2023-05-11T22:24:10.906Z,18.00
2023-05-11T22:26:38.811Z,17.80
2023-05-11T22:29:06.876Z,17.70
2023-05-11T22:31:45.800Z,17.70
2023-05-11T22:34:17.201Z,17.80
2023-05-11T22:36:48.640Z,17.70
2023-05-11T22:39:21.051Z,17.70
2023-05-11T22:41:48.889Z,17.60
2023-05-11T22:44:17.702Z,17.60
2023-05-11T22:46:49.114Z,17.60
2023-05-11T22:49:17.182Z,17.60
2023-05-11T22:51:47.814Z,17.50
2023-05-11T22:54:29.450Z,17.50
2023-05-11T22:56:57.385Z,17.30
2023-05-11T22:59:41.826Z,17.20
2023-05-11T23:02:16.834Z,17.20
2023-05-11T23:04:44.708Z,17.20
2023-05-11T23:07:15.598Z,17.20
2023-05-11T23:09:49.666Z,17.20
2023-05-11T23:12:18.231Z,17.20
2023-05-11T23:14:49.567Z,17.10
2023-05-11T23:17:27.905Z,16.80
2023-05-11T23:20:01.309Z,16.60
2023-05-11T23:22:29.367Z,16.50
2023-05-11T23:25:01.993Z,16.20
2023-05-11T23:27:32.915Z,16.30
2023-05-11T23:30:13.272Z,16.30
2023-05-11T23:32:41.132Z,16.10
2023-05-11T23:35:12.080Z,16.00
2023-05-11T23:37:39.985Z,15.90
2023-05-11T23:40:12.722Z,15.80
2023-05-11T23:42:40.608Z,15.70
2023-05-11T23:45:12.552Z,15.60
2023-05-11T23:47:55.454Z,15.40
2023-05-11T23:50:23.346Z,15.40
2023-05-11T23:52:51.298Z,15.30
2023-05-11T23:55:27.924Z,15.10
2023-05-11T23:58:01.514Z,15.20
